Time;durP1;ratioP1;P1;durP2;ratioP2;P2;SDS_P1;SDS_P2;PMS_P1;PMS_P2;Temp;Humidity;BMP_temperature;BMP_pressure;BME280_temperature;BME280_humidity;BME280_pressure;Samples;Min_cycle;Max_cycle;Signal;HPM_P1;HPM_P2
2023/11/01 00:00:06;;;;;;;8.13;7.23;;;5.50;99.90;;;;;;5107060;27;20325;-51
2023/11/01 00:02:39;;;;;;;15.07;9.00;;;5.50;99.90;;;;;;5101384;28;20276;-44
2023/11/01 00:05:06;;;;;;;10.30;8.13;;;5.50;99.90;;;;;;5070901;27;20205;-49
2023/11/01 00:07:32;;;;;;;15.63;8.27;;;5.50;99.90;;;;;;5101227;28;20186;-46
2023/11/01 00:09:59;;;;;;;15.57;9.20;;;5.50;99.90;;;;;;5089502;28;20221;-52
2023/11/01 00:12:26;;;;;;;8.17;7.07;;;5.60;99.90;;;;;;5104700;27;20957;-43
2023/11/01 00:14:53;;;;;;;9.17;6.83;;;5.60;99.90;;;;;;5107582;27;20260;-48
2023/11/01 00:17:21;;;;;;;12.17;6.67;;;5.60;99.90;;;;;;5098963;28;20246;-44
2023/11/01 00:19:48;;;;;;;9.07;6.73;;;5.70;99.90;;;;;;5064658;28;20221;-45
2023/11/01 00:22:15;;;;;;;12.00;6.97;;;5.70;99.90;;;;;;5101391;28;20952;-51
2023/11/01 00:24:42;;;;;;;8.40;6.40;;;5.70;99.90;;;;;;5090830;27;21661;-45
2023/11/01 00:27:09;;;;;;;9.60;6.20;;;5.70;99.90;;;;;;5103216;28;20193;-43
2023/11/01 00:29:36;;;;;;;8.30;6.03;;;5.80;99.90;;;;;;5098432;28;20189;-43
2023/11/01 00:32:03;;;;;;;8.53;5.67;;;5.80;99.90;;;;;;5102357;28;20197;-46
2023/11/01 00:34:31;;;;;;;11.27;6.17;;;5.80;99.90;;;;;;5067531;28;20262;-50
2023/11/01 00:36:57;;;;;;;7.53;5.47;;;5.90;99.90;;;;;;5102775;28;20262;-46
2023/11/01 00:39:24;;;;;;;7.00;4.77;;;5.90;99.90;;;;;;5100346;28;20224;-51
2023/11/01 00:41:51;;;;;;;8.60;5.87;;;5.90;99.90;;;;;;5089335;28;20217;-45
2023/11/01 00:44:18;;;;;;;11.33;5.63;;;5.90;99.90;;;;;;5100353;28;20217;-48
2023/11/01 00:46:45;;;;;;;8.63;6.20;;;5.90;99.90;;;;;;5100116;28;20189;-46
2023/11/01 00:49:12;;;;;;;7.83;5.53;;;5.90;99.90;;;;;;5101228;28;20660;-50
2023/11/01 00:51:40;;;;;;;8.50;5.37;;;5.90;99.90;;;;;;5071501;27;20200;-47
2023/11/01 00:54:07;;;;;;;8.57;5.93;;;6.00;99.90;;;;;;5101773;28;20217;-49
2023/11/01 00:56:34;;;;;;;7.30;5.13;;;6.00;99.90;;;;;;5090081;28;20193;-46
2023/11/01 00:59:00;;;;;;;7.37;5.50;;;6.00;99.90;;;;;;5103117;28;20186;-46
2023/11/01 01:01:27;;;;;;;6.37;5.40;;;6.00;99.90;;;;;;5099231;28;20603;-50
2023/11/01 01:03:54;;;;;;;10.37;6.10;;;6.00;99.90;;;;;;5101309;28;20217;-45
2023/11/01 01:06:21;;;;;;;6.40;5.50;;;6.00;99.90;;;;;;5080980;28;20232;-47
2023/11/01 01:08:49;;;;;;;11.33;5.90;;;5.90;99.90;;;;;;5084319;28;20197;-47
2023/11/01 01:11:17;;;;;;;8.03;5.40;;;5.90;99.90;;;;;;5095130;28;20185;-51
2023/11/01 01:13:44;;;;;;;6.67;5.60;;;6.00;99.90;;;;;;5094779;28;20213;-47
2023/11/01 01:16:11;;;;;;;9.03;5.00;;;6.00;99.90;;;;;;5101056;28;20794;-52
2023/11/01 01:18:39;;;;;;;10.67;5.57;;;6.00;99.90;;;;;;5099251;28;20196;-50
2023/11/01 01:21:06;;;;;;;8.20;5.40;;;6.10;99.90;;;;;;5102248;28;20212;-44
2023/11/01 01:23:33;;;;;;;9.97;6.07;;;6.10;99.90;;;;;;5056492;28;20282;-43
2023/11/01 01:26:02;;;;;;;8.50;5.27;;;6.10;99.90;;;;;;5104878;27;20197;-46
2023/11/01 01:28:29;;;;;;;7.67;4.50;;;6.10;99.90;;;;;;5087402;28;20575;-52
2023/11/01 01:30:56;;;;;;;6.87;5.07;;;6.20;99.90;;;;;;5100930;28;20202;-47
2023/11/01 01:33:22;;;;;;;8.80;5.00;;;6.20;99.90;;;;;;5099696;28;20281;-53
2023/11/01 01:35:49;;;;;;;10.77;5.30;;;6.20;99.90;;;;;;5100112;28;20193;-43
2023/11/01 01:38:16;;;;;;;11.10;4.90;;;6.20;99.90;;;;;;5070491;27;20205;-49
2023/11/01 01:40:43;;;;;;;8.70;4.40;;;6.20;99.90;;;;;;5107309;27;20955;-44
2023/11/01 01:43:18;;;;;;;5.50;4.63;;;6.20;99.90;;;;;;5101873;27;20274;-48
2023/11/01 01:45:45;;;;;;;5.43;4.90;;;6.20;99.90;;;;;;5096142;28;20192;-44
2023/11/01 01:48:12;;;;;;;8.10;4.60;;;6.20;99.90;;;;;;5100564;28;20280;-49
2023/11/01 01:50:40;;;;;;;6.13;4.40;;;6.20;99.90;;;;;;5097397;27;20186;-46
2023/11/01 01:53:07;;;;;;;6.73;4.23;;;6.30;99.90;;;;;;5099919;28;20217;-44
2023/11/01 01:55:34;;;;;;;6.77;4.10;;;6.30;99.90;;;;;;5064261;28;20206;-48
2023/11/01 01:58:01;;;;;;;5.77;4.90;;;6.30;99.90;;;;;;5099053;28;20193;-49
2023/11/01 02:00:30;;;;;;;7.37;5.73;;;6.30;99.90;;;;;;5087459;28;20700;-53
2023/11/01 02:03:00;;;;;;;8.63;4.30;;;6.30;99.90;;;;;;5100552;28;20565;-43
2023/11/01 02:05:27;;;;;;;7.43;4.27;;;6.30;99.90;;;;;;5098687;28;20199;-48
2023/11/01 02:07:54;;;;;;;5.90;4.87;;;6.30;99.90;;;;;;5101727;28;20831;-45
2023/11/01 02:10:21;;;;;;;5.43;3.90;;;6.30;99.90;;;;;;5060081;28;20570;-49
2023/11/01 02:12:48;;;;;;;10.13;5.07;;;6.30;99.90;;;;;;5099135;28;20181;-45
2023/11/01 02:15:16;;;;;;;8.23;4.73;;;6.40;99.90;;;;;;5092094;28;20284;-50
2023/11/01 02:17:44;;;;;;;7.13;4.83;;;6.40;99.90;;;;;;5096419;28;20182;-49
2023/11/01 02:20:12;;;;;;;10.20;4.63;;;6.40;99.90;;;;;;5090238;28;20205;-48
2023/11/01 02:22:39;;;;;;;8.03;4.07;;;6.40;99.90;;;;;;5100360;28;20262;-46
2023/11/01 02:25:08;;;;;;;5.67;4.23;;;6.40;99.90;;;;;;5064553;28;20205;-44
2023/11/01 02:27:36;;;;;;;7.67;4.40;;;6.50;99.90;;;;;;5093767;28;20197;-49
2023/11/01 02:30:05;;;;;;;4.93;4.37;;;6.50;99.90;;;;;;5086921;28;20186;-49
2023/11/01 02:32:31;;;;;;;3.80;3.43;;;6.50;99.90;;;;;;5106958;28;20200;-51
2023/11/01 02:34:58;;;;;;;5.97;3.37;;;6.50;99.90;;;;;;5101650;28;20262;-44
2023/11/01 02:37:25;;;;;;;4.83;3.00;;;6.40;99.90;;;;;;5099742;28;20201;-51
2023/11/01 02:39:53;;;;;;;6.13;2.67;;;6.40;99.90;;;;;;5065361;28;20229;-44
2023/11/01 02:42:21;;;;;;;5.17;2.60;;;6.40;99.90;;;;;;5099605;28;20212;-47
2023/11/01 02:44:48;;;;;;;6.53;2.90;;;6.40;99.90;;;;;;5088873;28;23222;-46
2023/11/01 02:47:14;;;;;;;4.33;2.43;;;6.40;99.90;;;;;;5102288;28;20285;-44
2023/11/01 02:49:41;;;;;;;4.77;2.17;;;6.40;99.90;;;;;;5097967;28;20185;-45
2023/11/01 02:52:08;;;;;;;6.00;1.87;;;6.40;99.90;;;;;;5101651;28;20212;-46
2023/11/01 02:54:35;;;;;;;3.03;1.50;;;6.40;99.90;;;;;;5064725;28;20278;-51
2023/11/01 02:57:02;;;;;;;3.33;1.70;;;6.40;99.90;;;;;;5097718;28;20198;-44
2023/11/01 02:59:30;;;;;;;7.70;2.20;;;6.40;99.90;;;;;;5098458;28;20193;-51
2023/11/01 03:01:57;;;;;;;4.10;2.20;;;6.40;99.90;;;;;;5095007;28;20217;-48
2023/11/01 03:04:24;;;;;;;3.67;2.00;;;6.40;99.90;;;;;;5103814;28;20556;-47
2023/11/01 03:06:50;;;;;;;5.60;2.20;;;6.40;99.90;;;;;;5103198;28;20242;-45
2023/11/01 03:09:17;;;;;;;3.37;2.60;;;6.40;99.90;;;;;;5104954;28;20266;-50
2023/11/01 03:11:44;;;;;;;6.07;2.37;;;6.40;99.90;;;;;;5070288;28;20190;-43
2023/11/01 03:14:11;;;;;;;7.17;2.20;;;6.50;99.90;;;;;;5104199;28;20213;-50
2023/11/01 03:16:39;;;;;;;3.53;1.80;;;6.50;99.90;;;;;;5091329;28;20383;-42
2023/11/01 03:19:06;;;;;;;3.03;2.40;;;6.50;99.90;;;;;;5104987;28;20201;-48
2023/11/01 03:21:33;;;;;;;3.03;2.07;;;6.50;99.90;;;;;;5100425;28;20282;-49
2023/11/01 03:24:00;;;;;;;2.77;1.83;;;6.50;99.90;;;;;;5101834;28;20213;-44
2023/11/01 03:26:26;;;;;;;5.03;2.10;;;6.50;99.90;;;;;;5070552;28;20232;-49
2023/11/01 03:28:53;;;;;;;3.93;2.90;;;6.60;99.90;;;;;;5103279;28;20213;-44
2023/11/01 03:31:20;;;;;;;4.73;2.73;;;6.50;99.90;;;;;;5101277;28;20197;-47
2023/11/01 03:33:49;;;;;;;6.17;2.60;;;6.50;99.90;;;;;;5099131;27;20879;-49
2023/11/01 03:36:16;;;;;;;2.77;2.13;;;6.50;99.90;;;;;;5104583;28;20754;-51
2023/11/01 03:38:43;;;;;;;4.97;2.27;;;6.50;99.90;;;;;;5104193;27;20185;-45
2023/11/01 03:41:10;;;;;;;3.80;2.40;;;6.50;99.90;;;;;;5104878;28;20210;-43
2023/11/01 03:43:37;;;;;;;2.80;2.60;;;6.60;99.90;;;;;;5062450;27;20950;-48
2023/11/01 03:46:06;;;;;;;2.73;2.33;;;6.60;99.90;;;;;;5104402;28;20197;-44
2023/11/01 03:48:33;;;;;;;6.13;2.30;;;6.60;99.90;;;;;;5083970;28;20221;-51
2023/11/01 03:51:01;;;;;;;5.93;2.80;;;6.50;99.90;;;;;;5103921;28;20678;-43
2023/11/01 03:53:28;;;;;;;3.37;2.00;;;6.50;99.90;;;;;;5101464;28;20246;-50
2023/11/01 03:55:55;;;;;;;6.37;2.10;;;6.50;99.90;;;;;;5102296;28;20258;-46
2023/11/01 03:58:22;;;;;;;3.87;2.83;;;6.50;99.90;;;;;;5067004;28;20263;-51
2023/11/01 04:00:50;;;;;;;3.03;2.20;;;6.50;99.90;;;;;;5101352;28;20206;-44
2023/11/01 04:03:17;;;;;;;5.67;1.83;;;6.50;99.90;;;;;;5104320;27;20221;-52
2023/11/01 04:05:43;;;;;;;4.03;2.40;;;6.50;99.90;;;;;;5088248;28;20250;-47
2023/11/01 04:08:12;;;;;;;4.97;2.17;;;6.50;99.90;;;;;;5104074;28;20247;-44
2023/11/01 04:10:39;;;;;;;4.97;1.97;;;6.50;99.90;;;;;;5099894;28;20177;-48
2023/11/01 04:13:06;;;;;;;4.87;1.70;;;6.50;99.90;;;;;;5075771;27;20309;-51
2023/11/01 04:15:33;;;;;;;4.10;1.60;;;6.60;99.90;;;;;;5087577;28;20316;-44
2023/11/01 04:18:00;;;;;;;3.33;1.83;;;6.60;99.90;;;;;;5102019;28;20201;-50
2023/11/01 04:20:27;;;;;;;3.67;1.40;;;6.60;99.90;;;;;;5091257;27;20213;-44
2023/11/01 04:22:54;;;;;;;5.70;1.87;;;6.60;99.90;;;;;;5103796;28;21172;-44
2023/11/01 04:25:22;;;;;;;3.27;1.60;;;6.50;99.90;;;;;;5100357;28;20196;-44
2023/11/01 04:27:49;;;;;;;2.97;1.50;;;6.60;99.90;;;;;;5103446;28;20193;-45
2023/11/01 04:30:16;;;;;;;4.20;1.67;;;6.60;99.90;;;;;;5059893;28;20213;-46
2023/11/01 04:32:44;;;;;;;2.43;1.27;;;6.50;99.90;;;;;;5090542;28;20606;-47
2023/11/01 04:35:11;;;;;;;2.93;1.50;;;6.60;99.90;;;;;;5089980;28;20197;-51
2023/11/01 04:37:38;;;;;;;5.23;1.60;;;6.50;99.90;;;;;;5096968;28;20208;-50
2023/11/01 04:40:06;;;;;;;3.43;1.50;;;6.60;99.90;;;;;;5088444;28;20940;-48
2023/11/01 04:42:37;;;;;;;3.03;1.13;;;6.60;99.90;;;;;;5100718;27;20193;-51
2023/11/01 04:45:04;;;;;;;3.13;1.50;;;6.50;99.90;;;;;;5057782;28;20965;-44
2023/11/01 04:47:31;;;;;;;2.93;1.53;;;6.50;99.90;;;;;;5103373;28;20194;-50
2023/11/01 04:49:58;;;;;;;6.97;1.30;;;6.50;99.90;;;;;;5099585;28;20907;-44
2023/11/01 04:52:25;;;;;;;2.37;1.33;;;6.50;99.90;;;;;;5092078;28;20246;-49
2023/11/01 04:54:51;;;;;;;1.47;0.93;;;6.50;99.90;;;;;;5098774;28;20216;-46
2023/11/01 04:57:18;;;;;;;3.17;1.77;;;6.50;99.90;;;;;;5103136;28;20304;-44
2023/11/01 04:59:46;;;;;;;2.80;1.43;;;6.50;99.90;;;;;;5072694;28;20250;-49
2023/11/01 05:02:13;;;;;;;3.30;1.00;;;6.60;99.90;;;;;;5089368;28;20229;-46
2023/11/01 05:04:40;;;;;;;3.47;1.30;;;6.50;99.90;;;;;;5101256;28;20220;-50
2023/11/01 05:07:07;;;;;;;1.53;1.03;;;6.50;99.90;;;;;;5092488;28;20250;-44
2023/11/01 05:09:34;;;;;;;3.77;1.10;;;6.50;99.90;;;;;;5101450;28;20284;-50
2023/11/01 05:12:01;;;;;;;5.40;1.57;;;6.50;99.90;;;;;;5096498;28;20181;-44
2023/11/01 05:14:27;;;;;;;2.83;1.00;;;6.50;99.90;;;;;;5102610;28;20221;-48
2023/11/01 05:16:56;;;;;;;3.60;0.80;;;6.50;99.90;;;;;;5055236;27;20209;-46
2023/11/01 05:19:23;;;;;;;2.73;0.97;;;6.50;99.90;;;;;;5097129;28;20267;-50
2023/11/01 05:21:50;;;;;;;3.30;0.97;;;6.50;99.90;;;;;;5091482;27;20217;-47
2023/11/01 05:24:17;;;;;;;2.13;0.80;;;6.50;99.90;;;;;;5097546;28;20225;-51
2023/11/01 05:26:44;;;;;;;1.57;0.70;;;6.50;99.90;;;;;;5091570;27;20192;-52
2023/11/01 05:29:11;;;;;;;1.90;1.03;;;6.50;99.90;;;;;;5100455;28;20228;-45
2023/11/01 05:31:38;;;;;;;2.60;0.80;;;6.50;99.90;;;;;;5065480;28;20630;-49
2023/11/01 05:34:07;;;;;;;3.33;0.70;;;6.50;99.90;;;;;;5097059;28;20962;-44
2023/11/01 05:36:34;;;;;;;1.47;0.70;;;6.50;99.90;;;;;;5096987;28;20888;-51
2023/11/01 05:39:05;;;;;;;2.60;1.27;;;6.50;99.90;;;;;;5094070;28;20197;-47
2023/11/01 05:41:32;;;;;;;3.23;1.07;;;6.50;99.90;;;;;;5098516;27;20297;-49
2023/11/01 05:43:59;;;;;;;2.30;0.70;;;6.50;99.90;;;;;;5098988;28;20205;-44
2023/11/01 05:46:26;;;;;;;4.30;0.70;;;6.50;99.90;;;;;;5066058;27;20626;-48
2023/11/01 05:48:53;;;;;;;1.93;0.67;;;6.50;99.90;;;;;;5087326;28;20742;-44
2023/11/01 05:51:22;;;;;;;2.67;1.00;;;6.50;99.90;;;;;;5097977;28;20272;-47
2023/11/01 05:53:48;;;;;;;2.10;0.60;;;6.50;99.90;;;;;;5077979;28;20237;-50
2023/11/01 05:56:16;;;;;;;3.80;0.70;;;6.50;99.90;;;;;;5097873;28;20629;-52
2023/11/01 05:58:42;;;;;;;4.03;0.80;;;6.50;99.90;;;;;;5088990;28;20207;-48
2023/11/01 06:01:09;;;;;;;1.60;1.50;;;6.50;99.90;;;;;;5068446;28;20225;-47
2023/11/01 06:03:36;;;;;;;2.93;0.80;;;6.50;99.90;;;;;;5087972;28;20221;-46
2023/11/01 06:06:04;;;;;;;2.23;0.63;;;6.60;99.90;;;;;;5099110;28;20193;-50
2023/11/01 06:08:32;;;;;;;3.10;0.70;;;6.50;99.90;;;;;;5094985;28;20193;-46
2023/11/01 06:10:59;;;;;;;2.10;0.83;;;6.50;99.90;;;;;;5101818;28;20186;-48
2023/11/01 06:13:25;;;;;;;2.20;0.90;;;6.50;99.90;;;;;;5090378;28;20229;-45
2023/11/01 06:15:54;;;;;;;1.80;1.10;;;6.50;99.90;;;;;;5102216;28;20239;-49
2023/11/01 06:18:21;;;;;;;3.20;1.00;;;6.50;99.90;;;;;;5064434;28;20206;-46
2023/11/01 06:20:48;;;;;;;1.17;1.03;;;6.50;99.90;;;;;;5099594;28;20193;-48
2023/11/01 06:23:15;;;;;;;3.60;1.43;;;6.50;99.90;;;;;;5091180;28;20233;-49
2023/11/01 06:25:44;;;;;;;3.70;1.10;;;6.50;99.90;;;;;;5100603;28;20193;-45
2023/11/01 06:28:11;;;;;;;4.10;1.10;;;6.50;99.90;;;;;;5098920;28;20200;-48
2023/11/01 06:30:37;;;;;;;5.20;1.20;;;6.50;99.90;;;;;;5099066;28;20705;-48
2023/11/01 06:33:04;;;;;;;1.53;1.23;;;6.50;99.90;;;;;;5070432;28;20217;-50
2023/11/01 06:35:31;;;;;;;2.73;1.23;;;6.50;99.90;;;;;;5099829;27;20201;-48
2023/11/01 06:37:58;;;;;;;3.63;1.70;;;6.50;99.90;;;;;;5102889;28;20608;-49
2023/11/01 06:40:25;;;;;;;3.10;1.30;;;6.50;99.90;;;;;;5085443;28;20859;-46
2023/11/01 06:42:54;;;;;;;3.40;1.40;;;6.50;99.90;;;;;;5099246;28;20217;-46
2023/11/01 06:45:22;;;;;;;4.50;1.53;;;6.50;99.90;;;;;;5100992;28;20185;-48
2023/11/01 06:47:49;;;;;;;3.57;1.20;;;6.50;99.90;;;;;;5105203;28;20204;-50
2023/11/01 06:50:16;;;;;;;6.53;2.27;;;6.50;99.90;;;;;;5063413;27;20247;-50
2023/11/01 06:52:44;;;;;;;5.10;2.03;;;6.50;99.90;;;;;;5104369;28;20288;-46
2023/11/01 06:55:11;;;;;;;2.80;1.90;;;6.60;99.90;;;;;;5098291;27;20199;-50
2023/11/01 06:57:38;;;;;;;3.90;1.63;;;6.60;99.90;;;;;;5102655;28;20242;-47
2023/11/01 07:00:08;;;;;;;3.90;1.47;;;6.60;99.90;;;;;;5092895;27;20201;-45
2023/11/01 07:02:35;;;;;;;8.87;2.33;;;6.60;99.90;;;;;;5104955;28;20212;-47
2023/11/01 07:05:04;;;;;;;3.03;1.50;;;6.70;99.90;;;;;;5071989;27;20221;-50
2023/11/01 07:07:31;;;;;;;3.63;1.70;;;6.70;99.90;;;;;;5104434;27;20181;-47
2023/11/01 07:09:58;;;;;;;10.27;2.00;;;6.70;99.90;;;;;;5106238;27;20678;-52
2023/11/01 07:12:25;;;;;;;5.33;2.33;;;6.70;99.90;;;;;;5095413;27;20287;-49
2023/11/01 07:14:52;;;;;;;2.93;1.77;;;6.80;99.90;;;;;;5102028;28;20217;-46
2023/11/01 07:17:20;;;;;;;7.63;3.03;;;6.80;99.90;;;;;;5106746;27;20193;-49
2023/11/01 07:19:47;;;;;;;9.20;2.60;;;6.80;99.90;;;;;;5074529;27;21594;-49
2023/11/01 07:22:13;;;;;;;4.70;2.63;;;6.80;99.90;;;;;;5101105;28;20213;-45
2023/11/01 07:24:40;;;;;;;6.87;2.93;;;6.80;99.90;;;;;;5100884;28;20880;-49
2023/11/01 07:27:07;;;;;;;9.57;2.70;;;6.80;99.90;;;;;;5090166;28;20718;-50
2023/11/01 07:29:34;;;;;;;6.17;2.30;;;6.80;99.90;;;;;;5102751;27;20258;-51
2023/11/01 07:32:01;;;;;;;6.33;2.40;;;6.90;99.90;;;;;;5103331;28;20181;-44
2023/11/01 07:34:29;;;;;;;7.50;2.60;;;6.80;99.90;;;;;;5094838;28;20217;-47
2023/11/01 07:36:56;;;;;;;6.87;3.07;;;6.90;99.90;;;;;;5086146;28;20269;-49
2023/11/01 07:39:23;;;;;;;5.53;2.80;;;6.80;99.90;;;;;;5104846;28;20720;-47
2023/11/01 07:41:49;;;;;;;4.33;3.10;;;6.90;99.90;;;;;;5091145;28;20295;-47
2023/11/01 07:44:19;;;;;;;7.20;3.30;;;6.90;99.90;;;;;;5104694;28;20221;-47
2023/11/01 07:46:45;;;;;;;13.60;3.83;;;6.90;99.90;;;;;;5099478;28;20185;-48
2023/11/01 07:49:12;;;;;;;8.33;3.17;;;6.90;99.90;;;;;;5104547;27;20258;-45
2023/11/01 07:51:40;;;;;;;4.50;2.87;;;7.00;99.90;;;;;;5072646;27;20208;-50
2023/11/01 07:54:09;;;;;;;6.90;3.40;;;7.00;99.90;;;;;;5090248;28;20355;-50
2023/11/01 07:56:36;;;;;;;7.33;3.47;;;7.00;99.90;;;;;;5103763;28;20668;-50
2023/11/01 07:59:03;;;;;;;5.77;3.20;;;7.00;99.90;;;;;;5087824;28;20209;-48
2023/11/01 08:01:31;;;;;;;7.17;3.47;;;7.00;99.90;;;;;;5083274;28;20210;-46
2023/11/01 08:03:58;;;;;;;6.77;3.57;;;7.10;99.90;;;;;;5097879;27;20236;-46
2023/11/01 08:06:25;;;;;;;8.47;3.10;;;7.10;99.90;;;;;;5062926;27;20212;-47
2023/11/01 08:08:53;;;;;;;9.83;3.00;;;7.10;99.90;;;;;;5101549;28;20201;-50
2023/11/01 08:11:20;;;;;;;3.93;3.03;;;7.10;99.90;;;;;;5087733;28;20212;-46
2023/11/01 08:13:47;;;;;;;5.90;3.10;;;7.20;99.90;;;;;;5096999;27;20657;-46
2023/11/01 08:16:15;;;;;;;6.50;3.17;;;7.10;99.90;;;;;;5088639;28;20273;-47
2023/11/01 08:18:42;;;;;;;9.23;3.83;;;7.20;99.90;;;;;;5094280;28;20197;-48
2023/11/01 08:21:09;;;;;;;15.20;3.80;;;7.20;99.90;;;;;;5082321;27;21506;-46
2023/11/01 08:23:36;;;;;;;9.53;3.33;;;7.20;99.90;;;;;;5057812;28;20723;-46
2023/11/01 08:26:05;;;;;;;5.77;3.50;;;7.30;99.90;;;;;;5097879;28;20197;-47
2023/11/01 08:28:31;;;;;;;11.83;4.00;;;7.30;99.90;;;;;;5082887;28;20197;-48
2023/11/01 08:31:00;;;;;;;8.43;3.27;;;7.30;99.90;;;;;;5093349;28;20196;-46
2023/11/01 08:33:27;;;;;;;5.03;3.33;;;7.30;99.90;;;;;;5102653;27;20221;-47
2023/11/01 08:35:54;;;;;;;10.13;4.07;;;7.40;99.90;;;;;;5098962;28;20202;-47
2023/11/01 08:38:21;;;;;;;7.37;3.73;;;7.40;99.90;;;;;;5070860;28;20232;-46
2023/11/01 08:40:48;;;;;;;6.57;3.80;;;7.50;99.90;;;;;;5099288;28;20246;-48
2023/11/01 08:43:17;;;;;;;5.90;3.90;;;7.50;99.90;;;;;;5087267;28;20293;-46
2023/11/01 08:45:44;;;;;;;8.70;4.33;;;7.50;99.90;;;;;;5094426;28;20197;-47
2023/11/01 08:48:12;;;;;;;6.40;3.60;;;7.60;99.90;;;;;;5100039;28;20193;-46
2023/11/01 08:50:39;;;;;;;10.07;4.90;;;7.70;99.90;;;;;;5100457;28;20664;-48
2023/11/01 08:53:07;;;;;;;5.50;3.90;;;7.70;99.90;;;;;;5064825;27;20902;-46
2023/11/01 08:55:35;;;;;;;8.87;3.93;;;7.70;99.90;;;;;;5100572;28;20194;-46
2023/11/01 08:58:02;;;;;;;6.13;3.53;;;7.80;99.90;;;;;;5095323;27;20193;-46
2023/11/01 09:00:30;;;;;;;9.90;4.33;;;7.80;99.90;;;;;;5088008;27;20211;-48
2023/11/01 09:02:57;;;;;;;8.73;3.70;;;7.80;99.90;;;;;;5100343;27;20217;-49
2023/11/01 09:05:24;;;;;;;9.90;3.97;;;7.90;99.90;;;;;;5098991;28;20221;-45
2023/11/01 09:07:51;;;;;;;10.03;3.93;;;7.90;99.90;;;;;;5085303;28;20201;-48
2023/11/01 09:10:18;;;;;;;7.77;3.87;;;8.00;99.90;;;;;;5091145;27;20197;-48
2023/11/01 09:12:45;;;;;;;7.30;3.97;;;8.00;99.90;;;;;;5101414;28;20258;-50
2023/11/01 09:15:12;;;;;;;5.83;3.77;;;8.10;99.90;;;;;;5095664;27;20261;-50
2023/11/01 09:17:40;;;;;;;10.07;4.33;;;8.10;99.90;;;;;;5103063;27;20762;-46
2023/11/01 09:20:08;;;;;;;8.10;4.50;;;8.10;99.90;;;;;;5098056;28;20186;-52
2023/11/01 09:22:35;;;;;;;9.03;4.40;;;8.20;99.90;;;;;;5097429;28;20220;-47
2023/11/01 09:25:02;;;;;;;10.17;4.83;;;8.20;99.90;;;;;;5060884;28;20308;-50
2023/11/01 09:27:29;;;;;;;7.57;4.77;;;8.30;99.90;;;;;;5099492;28;20205;-46
2023/11/01 09:29:56;;;;;;;10.90;5.23;;;8.30;99.90;;;;;;5092698;27;20851;-45
2023/11/01 09:32:23;;;;;;;8.77;4.63;;;8.40;99.90;;;;;;5095492;27;20201;-46
2023/11/01 09:34:51;;;;;;;9.03;4.17;;;8.40;99.90;;;;;;5100662;28;20695;-47
2023/11/01 09:37:18;;;;;;;7.90;5.13;;;8.50;99.90;;;;;;5101436;27;20994;-48
2023/11/01 09:39:46;;;;;;;7.03;4.63;;;8.50;99.90;;;;;;5067419;27;20564;-46
2023/11/01 09:42:19;;;;;;;15.30;5.03;;;8.60;99.90;;;;;;5094676;28;20209;-46
2023/11/01 09:44:48;;;;;;;9.43;5.17;;;8.60;99.90;;;;;;5089635;28;20586;-50
2023/11/01 09:47:16;;;;;;;7.67;4.83;;;8.70;99.90;;;;;;5092241;28;20213;-46
2023/11/01 09:49:45;;;;;;;9.90;5.17;;;8.70;99.90;;;;;;5102166;28;20323;-46
2023/11/01 09:52:13;;;;;;;10.90;5.20;;;8.80;99.90;;;;;;5097522;28;20181;-48
2023/11/01 09:54:40;;;;;;;11.13;4.90;;;8.80;99.90;;;;;;5101902;28;20213;-46
2023/11/01 09:57:11;;;;;;;9.37;4.83;;;8.90;99.90;;;;;;5064860;28;20192;-48
2023/11/01 09:59:39;;;;;;;6.60;4.60;;;9.00;99.90;;;;;;5100863;28;20198;-46
2023/11/01 10:02:09;;;;;;;9.03;4.63;;;9.00;99.90;;;;;;5089144;28;20213;-47
2023/11/01 10:04:38;;;;;;;6.70;4.87;;;9.10;99.90;;;;;;5090356;28;20225;-50
2023/11/01 10:07:05;;;;;;;10.43;4.97;;;9.10;99.90;;;;;;5097596;28;20201;-46
2023/11/01 10:09:33;;;;;;;9.47;5.37;;;9.20;99.90;;;;;;5098846;28;20197;-46
2023/11/01 10:12:00;;;;;;;11.23;5.17;;;9.30;99.90;;;;;;5066430;28;20209;-47
2023/11/01 10:14:28;;;;;;;7.47;4.70;;;9.40;99.90;;;;;;5099640;28;20240;-46
2023/11/01 10:16:57;;;;;;;5.80;4.63;;;9.50;99.90;;;;;;5087456;28;20541;-45
2023/11/01 10:19:24;;;;;;;13.90;4.53;;;9.60;99.90;;;;;;5093632;28;20679;-46
2023/11/01 10:21:51;;;;;;;6.53;5.03;;;9.70;99.90;;;;;;5099111;28;20573;-48
2023/11/01 10:24:18;;;;;;;6.23;4.40;;;9.70;99.90;;;;;;5095848;28;20223;-47
2023/11/01 10:26:47;;;;;;;8.87;4.77;;;9.80;99.90;;;;;;5063812;28;20252;-48
2023/11/01 10:29:13;;;;;;;7.70;5.20;;;9.80;99.90;;;;;;5092298;28;20229;-46
2023/11/01 10:31:40;;;;;;;6.57;4.60;;;9.80;99.90;;;;;;5089022;28;20197;-46
2023/11/01 10:34:12;;;;;;;7.17;4.67;;;9.90;99.90;;;;;;5089566;28;20209;-46
2023/11/01 10:36:51;;;;;;;8.90;5.73;;;9.90;99.90;;;;;;5101618;28;20249;-46
2023/11/01 10:39:18;;;;;;;7.27;5.23;;;10.00;99.90;;;;;;5098807;28;20999;-47
2023/11/01 10:41:49;;;;;;;8.33;5.27;;;10.00;99.90;;;;;;5096653;28;20185;-47
2023/11/01 10:44:17;;;;;;;7.87;4.77;;;10.10;99.90;;;;;;5076921;28;20223;-46
2023/11/01 10:46:44;;;;;;;8.47;4.53;;;10.10;99.90;;;;;;5101299;28;20193;-49
2023/11/01 10:49:11;;;;;;;7.97;5.20;;;10.10;99.90;;;;;;5081448;28;20201;-48
2023/11/01 10:51:39;;;;;;;7.43;5.50;;;10.20;99.90;;;;;;5081926;28;20200;-47
2023/11/01 10:54:07;;;;;;;10.30;5.03;;;10.20;99.90;;;;;;5099462;28;20309;-48
2023/11/01 10:56:34;;;;;;;7.93;5.10;;;10.20;99.90;;;;;;5086284;28;20325;-46
2023/11/01 10:59:12;;;;;;;7.47;4.77;;;10.30;99.90;;;;;;5069233;28;20197;-49
2023/11/01 11:01:42;;;;;;;5.83;5.33;;;10.30;99.90;;;;;;5094908;28;20185;-48
2023/11/01 11:04:21;;;;;;;8.37;4.60;;;10.30;99.90;;;;;;5092213;28;20240;-50
2023/11/01 11:06:56;;;;;;;10.40;5.17;;;10.40;99.90;;;;;;5090432;28;20276;-49
2023/11/01 11:09:25;;;;;;;8.60;4.87;;;10.60;99.90;;;;;;5100368;28;20190;-50
2023/11/01 11:12:14;;;;;;;8.87;5.70;;;10.60;99.90;;;;;;5090068;28;20341;-48
2023/11/01 11:14:44;;;;;;;7.90;5.40;;;10.70;99.90;;;;;;5060885;28;20221;-48
2023/11/01 11:17:15;;;;;;;7.50;5.10;;;10.70;99.90;;;;;;5101886;28;20567;-46
2023/11/01 11:20:10;;;;;;;7.77;5.50;;;10.80;99.90;;;;;;5083291;28;21501;-47
2023/11/01 11:23:12;;;;;;;6.87;4.93;;;10.80;99.90;;;;;;5097111;28;20251;-47
2023/11/01 11:25:49;;;;;;;7.83;4.63;;;10.90;99.90;;;;;;5088498;27;20193;-46
2023/11/01 11:28:44;;;;;;;7.83;4.70;;;10.90;99.90;;;;;;5091288;28;20326;-51
2023/11/01 11:31:13;;;;;;;8.63;4.67;;;11.00;99.90;;;;;;5087140;27;20193;-47
2023/11/01 11:34:15;;;;;;;5.13;4.20;;;11.00;99.90;;;;;;5093474;28;20228;-48
2023/11/01 11:37:05;;;;;;;8.80;4.47;;;11.00;99.90;;;;;;5079842;28;20942;-49
2023/11/01 11:39:52;;;;;;;5.70;4.23;;;11.10;99.90;;;;;;5096621;28;20276;-49
2023/11/01 11:42:52;;;;;;;6.83;4.20;;;11.10;99.90;;;;;;5099662;27;20205;-49
2023/11/01 11:45:29;;;;;;;7.40;4.40;;;11.10;99.90;;;;;;5017433;28;20196;-48
2023/11/01 11:47:57;;;;;;;8.57;4.13;;;11.20;99.90;;;;;;5030354;28;20353;-45
2023/11/01 11:50:25;;;;;;;7.00;4.53;;;11.20;99.90;;;;;;5050337;28;20213;-51
2023/11/01 11:52:52;;;;;;;5.47;4.40;;;11.30;99.90;;;;;;5100085;28;20225;-45
2023/11/01 11:55:45;;;;;;;7.63;4.80;;;11.30;99.90;;;;;;5102126;28;20216;-47
2023/11/01 11:58:12;;;;;;;4.47;3.83;;;11.40;99.90;;;;;;5103392;28;20217;-46
2023/11/01 12:00:46;;;;;;;6.40;3.87;;;11.30;99.90;;;;;;5075863;27;20619;-50
2023/11/01 12:03:24;;;;;;;5.03;4.27;;;11.30;99.90;;;;;;5110995;27;20258;-48
2023/11/01 12:05:56;;;;;;;5.57;4.20;;;11.30;99.90;;;;;;5093789;27;20216;-45
2023/11/01 12:08:34;;;;;;;6.83;4.47;;;11.30;99.90;;;;;;5101718;28;20247;-50
2023/11/01 12:11:01;;;;;;;7.17;5.13;;;11.40;99.90;;;;;;5102168;28;20705;-46
2023/11/01 12:13:40;;;;;;;7.60;4.70;;;11.30;99.90;;;;;;5100268;27;20213;-51
2023/11/01 12:16:07;;;;;;;7.50;4.07;;;11.40;99.90;;;;;;5093891;28;20197;-46
2023/11/01 12:18:35;;;;;;;8.30;4.60;;;11.40;99.90;;;;;;5070575;28;20193;-46
2023/11/01 12:21:11;;;;;;;9.03;4.60;;;11.40;99.90;;;;;;5092694;27;20262;-46
2023/11/01 12:23:44;;;;;;;8.27;4.90;;;11.30;99.90;;;;;;5089922;28;20209;-45
2023/11/01 12:26:11;;;;;;;5.33;4.43;;;11.30;99.90;;;;;;5100299;28;20251;-45
2023/11/01 12:28:37;;;;;;;6.60;4.07;;;11.30;99.90;;;;;;5098354;28;20185;-47
2023/11/01 12:31:14;;;;;;;7.30;4.53;;;11.30;99.90;;;;;;5095263;28;20671;-45
2023/11/01 12:33:42;;;;;;;6.10;4.93;;;11.30;99.90;;;;;;5070355;27;20209;-45
2023/11/01 12:36:09;;;;;;;8.33;4.93;;;11.30;99.90;;;;;;5094266;28;20250;-50
2023/11/01 12:38:36;;;;;;;9.70;4.80;;;11.20;99.90;;;;;;5092237;28;20204;-48
2023/11/01 12:41:10;;;;;;;5.47;4.77;;;11.20;99.90;;;;;;5101690;28;20194;-46
2023/11/01 12:43:37;;;;;;;8.77;4.70;;;11.20;99.90;;;;;;5097428;28;20541;-49
2023/11/01 12:46:04;;;;;;;7.80;4.67;;;11.20;99.90;;;;;;5103502;27;20205;-46
2023/11/01 12:48:31;;;;;;;7.37;4.50;;;11.20;99.90;;;;;;5073498;27;20193;-50
2023/11/01 12:50:59;;;;;;;5.93;4.27;;;11.20;99.90;;;;;;5103339;27;20286;-47
2023/11/01 12:53:26;;;;;;;6.13;4.30;;;11.20;99.90;;;;;;5093698;28;20213;-50
2023/11/01 12:55:53;;;;;;;4.53;3.80;;;11.20;99.90;;;;;;5101003;28;20212;-45
2023/11/01 12:58:20;;;;;;;10.00;4.13;;;11.30;99.90;;;;;;5099886;28;20255;-48
2023/11/01 13:00:47;;;;;;;5.23;4.13;;;11.30;99.90;;;;;;5099674;27;20264;-46